createdAt,value
2023-03-31T00:00:07.869Z,1001.15
2023-03-31T00:01:07.874Z,1001.22
2023-03-31T00:02:07.866Z,1001.15
2023-03-31T00:03:07.987Z,1001.19
2023-03-31T00:04:08.039Z,1001.18
2023-03-31T00:05:07.943Z,1001.18
2023-03-31T00:06:08.150Z,1001.14
2023-03-31T00:07:07.865Z,1001.12
2023-03-31T00:08:07.857Z,1001.10
2023-03-31T00:09:09.523Z,1001.10
2023-03-31T00:10:17.870Z,1001.10
2023-03-31T00:11:07.954Z,1001.09
2023-03-31T00:12:07.855Z,1001.07
2023-03-31T00:13:07.856Z,1001.09
2023-03-31T00:14:07.850Z,1001.07
2023-03-31T00:15:07.847Z,1001.07
2023-03-31T00:16:08.197Z,1001.01
2023-03-31T00:17:07.860Z,1001.06
2023-03-31T00:18:07.895Z,1001.10
2023-03-31T00:19:07.878Z,1001.06
2023-03-31T00:20:07.871Z,1001.15
2023-03-31T00:21:07.838Z,1001.08
2023-03-31T00:22:07.851Z,1001.09
2023-03-31T00:23:07.837Z,1001.10
2023-03-31T00:24:07.837Z,1001.10
2023-03-31T00:25:07.835Z,1001.05
2023-03-31T00:26:08.182Z,1001.05
2023-03-31T00:27:07.847Z,1001.10
2023-03-31T00:28:07.834Z,1001.03
2023-03-31T00:29:07.837Z,1001.04
2023-03-31T00:30:07.837Z,1000.99
2023-03-31T00:31:07.822Z,1001.00
2023-03-31T00:32:07.942Z,1001.00
2023-03-31T00:33:07.863Z,1001.01
2023-03-31T00:34:07.842Z,1001.02
2023-03-31T00:35:07.820Z,1000.96
2023-03-31T00:36:08.112Z,1000.99
2023-03-31T00:37:07.811Z,1000.93
2023-03-31T00:38:07.813Z,1000.93
2023-03-31T00:39:07.813Z,1000.93
2023-03-31T00:40:07.814Z,1000.89
2023-03-31T00:41:07.811Z,1000.86
2023-03-31T00:42:07.814Z,1000.88
2023-03-31T00:43:07.802Z,1000.88
2023-03-31T00:44:07.802Z,1000.83
2023-03-31T00:45:07.799Z,1000.82
2023-03-31T00:46:08.046Z,1000.86
2023-03-31T00:47:07.804Z,1000.85
2023-03-31T00:48:07.824Z,1000.85
2023-03-31T00:49:07.793Z,1000.81
2023-03-31T00:50:07.793Z,1000.80
2023-03-31T00:51:07.791Z,1000.82
2023-03-31T00:52:08.148Z,1000.84
2023-03-31T00:53:08.119Z,1000.79
2023-03-31T00:54:07.795Z,1000.80
2023-03-31T00:55:07.799Z,1000.80
2023-03-31T00:56:08.154Z,1000.77
2023-03-31T00:57:07.816Z,1000.76
2023-03-31T00:58:07.782Z,1000.73
2023-03-31T00:59:07.814Z,1000.74
2023-03-31T01:00:07.782Z,1000.72
2023-03-31T01:01:07.792Z,1000.70
2023-03-31T01:02:07.803Z,1000.74
2023-03-31T01:03:07.913Z,1000.74
2023-03-31T01:04:07.828Z,1000.73
2023-03-31T01:05:07.766Z,1000.69
2023-03-31T01:06:07.990Z,1000.68
2023-03-31T01:07:07.771Z,1000.64
2023-03-31T01:08:07.797Z,1000.71
2023-03-31T01:09:07.769Z,1000.64
2023-03-31T01:10:07.768Z,1000.64
2023-03-31T01:11:07.762Z,1000.65
2023-03-31T01:12:07.781Z,1000.65
2023-03-31T01:13:07.765Z,1000.61
2023-03-31T01:14:07.768Z,1000.64
2023-03-31T01:15:07.768Z,1000.57
2023-03-31T01:16:07.965Z,1000.59
2023-03-31T01:17:07.849Z,1000.60
2023-03-31T01:18:07.817Z,1000.55
2023-03-31T01:19:07.750Z,1000.61
2023-03-31T01:20:07.755Z,1000.50
2023-03-31T01:21:07.760Z,1000.48
2023-03-31T01:22:07.752Z,1000.48
2023-03-31T01:23:07.828Z,1000.47
2023-03-31T01:24:07.782Z,1000.43
2023-03-31T01:25:07.742Z,1000.42
2023-03-31T01:26:07.960Z,1000.44
2023-03-31T01:27:07.759Z,1000.44
2023-03-31T01:28:07.740Z,1000.43
2023-03-31T01:29:07.754Z,1000.41
2023-03-31T01:30:07.746Z,1000.36
2023-03-31T01:31:07.779Z,1000.39
2023-03-31T01:32:07.737Z,1000.33
2023-03-31T01:33:07.804Z,1000.36
2023-03-31T01:34:07.736Z,1000.37
2023-03-31T01:36:07.982Z,1000.32
2023-03-31T01:37:07.729Z,1000.32
2023-03-31T01:38:07.730Z,1000.34
2023-03-31T01:39:07.722Z,1000.30
2023-03-31T01:40:07.759Z,1000.31
2023-03-31T01:41:07.739Z,1000.27
2023-03-31T01:42:07.728Z,1000.25
2023-03-31T01:43:07.723Z,1000.25
2023-03-31T01:44:07.768Z,1000.25
2023-03-31T01:45:07.712Z,1000.25
2023-03-31T01:46:08.026Z,1000.17
2023-03-31T01:47:07.732Z,1000.19
2023-03-31T01:48:07.731Z,1000.19
2023-03-31T01:49:07.708Z,1000.22
2023-03-31T01:50:07.712Z,1000.21
2023-03-31T01:51:07.703Z,1000.16
2023-03-31T01:52:07.824Z,1000.16
2023-03-31T01:53:07.698Z,1000.13
2023-03-31T01:54:07.708Z,1000.18
2023-03-31T01:55:07.705Z,1000.10
2023-03-31T01:56:08.105Z,1000.12
2023-03-31T01:57:07.806Z,1000.07
2023-03-31T01:58:07.703Z,1000.05
2023-03-31T01:59:07.691Z,1000.09
2023-03-31T02:00:07.730Z,1000.10
2023-03-31T02:01:07.691Z,1000.09
2023-03-31T02:02:07.734Z,1000.12
2023-03-31T02:03:07.866Z,1000.14
2023-03-31T02:04:07.685Z,1000.13
2023-03-31T02:05:07.681Z,1000.11
2023-03-31T02:06:08.016Z,1000.12
2023-03-31T02:07:07.676Z,1000.11
2023-03-31T02:08:07.674Z,1000.10
2023-03-31T02:09:07.674Z,1000.05
2023-03-31T02:10:07.698Z,1000.04
2023-03-31T02:11:07.672Z,1000.04
2023-03-31T02:12:07.706Z,1000.01
2023-03-31T02:13:07.665Z,1000.03
2023-03-31T02:14:07.678Z,999.97
2023-03-31T02:15:07.664Z,999.95
2023-03-31T02:16:07.991Z,1000.00
2023-03-31T02:17:07.665Z,999.96
2023-03-31T02:18:07.662Z,1000.00
2023-03-31T02:19:07.659Z,999.97
2023-03-31T02:20:07.677Z,999.98
2023-03-31T02:21:07.660Z,999.95
2023-03-31T02:22:07.665Z,999.94
2023-03-31T02:23:07.655Z,999.90
2023-03-31T02:24:07.650Z,999.92
2023-03-31T02:25:07.655Z,999.89
2023-03-31T02:26:07.883Z,999.86
2023-03-31T02:27:07.645Z,999.82
2023-03-31T02:28:07.771Z,999.80
2023-03-31T02:29:07.689Z,999.77
2023-03-31T02:30:07.645Z,999.75
2023-03-31T02:31:07.744Z,999.76
2023-03-31T02:32:07.638Z,999.76
2023-03-31T02:33:07.776Z,999.71
2023-03-31T02:34:07.639Z,999.74
2023-03-31T02:35:07.640Z,999.73
2023-03-31T02:36:08.003Z,999.71
2023-03-31T02:37:07.630Z,999.70
2023-03-31T02:38:07.629Z,999.66
2023-03-31T02:39:07.621Z,999.72
2023-03-31T02:40:07.639Z,999.67
2023-03-31T02:41:07.625Z,999.73
2023-03-31T02:42:07.793Z,999.69
2023-03-31T02:43:07.617Z,999.69
2023-03-31T02:44:07.652Z,999.69
2023-03-31T02:45:07.627Z,999.68
2023-03-31T02:46:08.136Z,999.63
2023-03-31T02:47:07.629Z,999.63
2023-03-31T02:48:07.617Z,999.63
2023-03-31T02:49:07.627Z,999.66
2023-03-31T02:50:07.633Z,999.63
2023-03-31T02:51:07.774Z,999.63
2023-03-31T02:52:07.610Z,999.59
2023-03-31T02:53:07.603Z,999.57
2023-03-31T02:54:07.614Z,999.62
2023-03-31T02:55:07.606Z,999.51
2023-03-31T02:56:07.867Z,999.56
2023-03-31T02:57:07.630Z,999.54
2023-03-31T02:58:07.598Z,999.55
2023-03-31T02:59:07.610Z,999.55
2023-03-31T03:00:07.622Z,999.50
2023-03-31T03:01:07.616Z,999.51
2023-03-31T03:02:07.717Z,999.51
2023-03-31T03:03:07.783Z,999.54
2023-03-31T03:04:07.595Z,999.51
2023-03-31T03:05:07.586Z,999.49
2023-03-31T03:06:07.829Z,999.51
2023-03-31T03:07:07.592Z,999.45
2023-03-31T03:08:07.587Z,999.50
2023-03-31T03:09:07.584Z,999.49
2023-03-31T03:10:20.327Z,999.44
2023-03-31T03:11:07.581Z,999.46
2023-03-31T03:12:07.582Z,999.42
2023-03-31T03:13:07.570Z,999.46
2023-03-31T03:14:07.596Z,999.48
2023-03-31T03:15:07.570Z,999.44
2023-03-31T03:16:07.887Z,999.44
2023-03-31T03:17:07.569Z,999.45
2023-03-31T03:18:07.621Z,999.44
2023-03-31T03:19:07.604Z,999.42
2023-03-31T03:20:07.570Z,999.40
2023-03-31T03:21:07.559Z,999.41
2023-03-31T03:22:09.217Z,999.42
2023-03-31T03:23:07.559Z,999.37
2023-03-31T03:24:07.558Z,999.38
2023-03-31T03:25:07.564Z,999.37
2023-03-31T03:26:07.802Z,999.40
2023-03-31T03:27:07.554Z,999.34
2023-03-31T03:28:07.553Z,999.30
2023-03-31T03:29:07.559Z,999.28
2023-03-31T03:30:07.551Z,999.31
2023-03-31T03:31:07.584Z,999.28
2023-03-31T03:32:07.577Z,999.25
2023-03-31T03:33:07.607Z,999.26
2023-03-31T03:34:07.551Z,999.21
2023-03-31T03:35:07.539Z,999.26
2023-03-31T03:36:07.850Z,999.26
2023-03-31T03:37:07.535Z,999.26
2023-03-31T03:38:07.538Z,999.21
2023-03-31T03:39:07.560Z,999.21
2023-03-31T03:40:07.543Z,999.20
2023-03-31T03:41:07.531Z,999.20
2023-03-31T03:42:07.532Z,999.15
2023-03-31T03:43:07.524Z,999.13
2023-03-31T03:44:07.536Z,999.17
2023-03-31T03:45:07.562Z,999.13
2023-03-31T03:46:07.744Z,999.12
2023-03-31T03:47:07.528Z,999.17
2023-03-31T03:48:07.617Z,999.13
2023-03-31T03:49:07.520Z,999.11
2023-03-31T03:50:07.531Z,999.08
2023-03-31T03:51:07.514Z,999.07
2023-03-31T03:52:07.517Z,999.09
2023-03-31T03:53:07.514Z,999.07
2023-03-31T03:54:07.515Z,999.04
2023-03-31T03:55:07.509Z,999.00
2023-03-31T03:56:07.876Z,998.99
2023-03-31T03:57:07.570Z,998.98
2023-03-31T03:58:07.506Z,998.97
2023-03-31T03:59:07.501Z,998.99
2023-03-31T04:00:07.512Z,998.96
2023-03-31T04:01:07.499Z,998.96
2023-03-31T04:02:04.592Z,998.97
2023-03-31T04:03:04.643Z,998.95
2023-03-31T04:04:04.589Z,998.89
2023-03-31T04:05:04.581Z,998.91
2023-03-31T04:06:04.927Z,998.88
2023-03-31T04:07:04.551Z,998.84
2023-03-31T04:08:04.555Z,998.83
2023-03-31T04:09:04.547Z,998.84
2023-03-31T04:10:04.556Z,998.80
2023-03-31T04:11:04.543Z,998.84
2023-03-31T04:12:04.554Z,998.78
2023-03-31T04:13:04.558Z,998.80
2023-03-31T04:14:04.543Z,998.77
2023-03-31T04:15:04.550Z,998.75
2023-03-31T04:16:04.826Z,998.76
2023-03-31T04:17:04.540Z,998.75
2023-03-31T04:18:04.573Z,998.76
2023-03-31T04:19:04.536Z,998.78
2023-03-31T04:20:04.555Z,998.77
2023-03-31T04:21:04.536Z,998.80
2023-03-31T04:22:04.534Z,998.78
2023-03-31T04:23:04.524Z,998.78
2023-03-31T04:24:04.669Z,998.72
2023-03-31T04:25:04.522Z,998.73
2023-03-31T04:26:04.762Z,998.67
2023-03-31T04:27:04.520Z,998.72
2023-03-31T04:28:04.520Z,998.73
2023-03-31T04:29:04.527Z,998.66
2023-03-31T04:30:04.519Z,998.68
2023-03-31T04:31:04.512Z,998.68
2023-03-31T04:32:04.541Z,998.62
2023-03-31T04:33:04.525Z,998.60
2023-03-31T04:34:04.511Z,998.62
2023-03-31T04:35:04.508Z,998.59
2023-03-31T04:36:04.964Z,998.57
2023-03-31T04:37:04.521Z,998.51
2023-03-31T04:38:04.502Z,998.56
2023-03-31T04:39:04.504Z,998.51
2023-03-31T04:40:04.506Z,998.56
2023-03-31T04:41:04.501Z,998.56
2023-03-31T04:42:04.513Z,998.54
2023-03-31T04:43:04.495Z,998.51
2023-03-31T04:44:04.498Z,998.52
2023-03-31T04:45:04.497Z,998.46
2023-03-31T04:46:04.797Z,998.48
2023-03-31T04:47:04.490Z,998.46
2023-03-31T04:48:04.612Z,998.47
2023-03-31T04:49:04.491Z,998.46
2023-03-31T04:50:04.480Z,998.46
2023-03-31T04:51:04.478Z,998.41
2023-03-31T04:52:04.505Z,998.41
2023-03-31T04:53:04.477Z,998.47
2023-03-31T04:54:04.478Z,998.38
2023-03-31T04:55:04.477Z,998.36
2023-03-31T04:56:04.832Z,998.37
2023-03-31T04:57:04.510Z,998.38
2023-03-31T04:58:04.478Z,998.30
2023-03-31T04:59:04.477Z,998.31
2023-03-31T05:00:04.472Z,998.32
2023-03-31T05:01:04.500Z,998.26
2023-03-31T05:02:04.554Z,998.28
2023-03-31T05:03:04.520Z,998.28
2023-03-31T05:04:04.475Z,998.32
2023-03-31T05:05:04.541Z,998.33
2023-03-31T05:06:04.726Z,998.31
2023-03-31T05:07:04.461Z,998.33
2023-03-31T05:08:04.496Z,998.30
2023-03-31T05:09:04.463Z,998.32
2023-03-31T05:10:04.460Z,998.26
2023-03-31T05:11:04.500Z,998.24
2023-03-31T05:12:04.464Z,998.18
2023-03-31T05:13:04.460Z,998.17
2023-03-31T05:14:04.469Z,998.17
2023-03-31T05:15:04.457Z,998.20
2023-03-31T05:16:05.015Z,998.15
2023-03-31T05:17:04.569Z,998.15
2023-03-31T05:18:04.512Z,998.11
2023-03-31T05:19:04.457Z,998.10
2023-03-31T05:20:04.453Z,998.13
2023-03-31T05:21:04.558Z,998.12
2023-03-31T05:22:04.445Z,998.08
2023-03-31T05:23:04.447Z,998.06
2023-03-31T05:24:04.479Z,998.06
2023-03-31T05:25:04.443Z,998.03
2023-03-31T05:26:04.891Z,998.02
2023-03-31T05:27:04.437Z,997.97
2023-03-31T05:28:04.443Z,997.95
2023-03-31T05:29:04.448Z,997.96
2023-03-31T05:30:04.490Z,997.99
2023-03-31T05:31:04.482Z,997.98
2023-03-31T05:32:04.590Z,997.98
2023-03-31T05:33:04.500Z,997.97
2023-03-31T05:34:04.430Z,998.01
2023-03-31T05:35:04.433Z,997.99
2023-03-31T05:36:04.720Z,998.01
2023-03-31T05:37:04.436Z,998.04
2023-03-31T05:38:04.450Z,998.00
2023-03-31T05:39:04.431Z,998.00
2023-03-31T05:40:04.494Z,998.02
2023-03-31T05:41:04.422Z,998.08
2023-03-31T05:42:04.420Z,998.06
2023-03-31T05:43:04.413Z,998.01
2023-03-31T05:44:04.417Z,998.00
2023-03-31T05:45:04.948Z,998.06
2023-03-31T05:46:04.811Z,998.03
2023-03-31T05:47:04.417Z,998.00
2023-03-31T05:48:04.521Z,997.97
2023-03-31T05:49:04.410Z,997.93
2023-03-31T05:50:04.415Z,997.93
2023-03-31T05:51:04.410Z,997.91
2023-03-31T05:52:04.413Z,997.89
2023-03-31T05:53:04.405Z,997.90
2023-03-31T05:54:04.418Z,997.91
2023-03-31T05:55:04.479Z,997.92
2023-03-31T05:56:04.605Z,997.91
2023-03-31T05:57:04.440Z,997.84
2023-03-31T05:58:04.402Z,997.89
2023-03-31T05:59:05.289Z,997.88
2023-03-31T06:00:04.397Z,997.88
2023-03-31T06:01:04.829Z,997.82
2023-03-31T06:02:04.431Z,997.80
2023-03-31T06:03:04.498Z,997.75
2023-03-31T06:04:04.432Z,997.78
2023-03-31T06:05:04.388Z,997.76
2023-03-31T06:06:04.387Z,997.81
2023-03-31T06:07:04.387Z,997.81
2023-03-31T06:08:04.385Z,997.80
2023-03-31T06:09:04.379Z,997.74
2023-03-31T06:10:04.381Z,997.71
2023-03-31T06:11:04.690Z,997.70
2023-03-31T06:12:04.399Z,997.64
2023-03-31T06:13:04.432Z,997.64
2023-03-31T06:14:04.378Z,997.63
2023-03-31T06:15:04.376Z,997.60
2023-03-31T06:16:04.383Z,997.61
2023-03-31T06:17:04.373Z,997.57
2023-03-31T06:18:04.381Z,997.62
2023-03-31T06:19:04.366Z,997.61
2023-03-31T06:20:10.138Z,997.59
2023-03-31T06:21:04.806Z,997.57
2023-03-31T06:22:04.376Z,997.55
2023-03-31T06:23:04.359Z,997.50
2023-03-31T06:24:04.376Z,997.53
2023-03-31T06:25:04.361Z,997.54
2023-03-31T06:26:04.405Z,997.50
2023-03-31T06:27:04.364Z,997.56
2023-03-31T06:28:04.384Z,997.48
2023-03-31T06:29:04.418Z,997.49
2023-03-31T06:30:04.354Z,997.50
2023-03-31T06:31:04.544Z,997.53
2023-03-31T06:32:04.421Z,997.57
2023-03-31T06:33:04.404Z,997.63
2023-03-31T06:34:04.349Z,997.60
2023-03-31T06:35:04.348Z,997.55
2023-03-31T06:37:04.354Z,997.55
2023-03-31T06:38:04.344Z,997.52
2023-03-31T06:39:04.346Z,997.55
2023-03-31T06:40:04.350Z,997.53
2023-03-31T06:41:04.723Z,997.51
2023-03-31T06:42:04.342Z,997.47
2023-03-31T06:43:04.587Z,997.42
2023-03-31T06:44:04.375Z,997.44
2023-03-31T06:45:04.337Z,997.43
2023-03-31T06:46:04.423Z,997.44
2023-03-31T06:47:04.332Z,997.43
2023-03-31T06:48:04.352Z,997.43
2023-03-31T06:49:04.332Z,997.38
2023-03-31T06:50:04.335Z,997.40
2023-03-31T06:51:04.351Z,997.45
2023-03-31T06:52:04.346Z,997.47
2023-03-31T06:53:04.327Z,997.52
2023-03-31T06:54:04.324Z,997.53
2023-03-31T06:55:04.356Z,997.51
2023-03-31T06:56:04.670Z,997.59
2023-03-31T06:57:04.351Z,997.43
2023-03-31T06:58:04.335Z,997.40
2023-03-31T06:59:04.323Z,997.41
2023-03-31T07:00:04.347Z,997.45
2023-03-31T07:01:04.541Z,997.52
2023-03-31T07:02:04.357Z,997.46
2023-03-31T07:03:04.397Z,997.46
2023-03-31T07:04:04.312Z,997.42
2023-03-31T07:05:04.317Z,997.35
2023-03-31T07:06:04.321Z,997.33
2023-03-31T07:07:04.310Z,997.29
2023-03-31T07:08:04.316Z,997.33
2023-03-31T07:09:04.309Z,997.34
2023-03-31T07:10:04.316Z,997.36
2023-03-31T07:11:05.074Z,997.36
2023-03-31T07:12:04.307Z,997.40
2023-03-31T07:13:05.694Z,997.39
2023-03-31T07:14:04.306Z,997.47
2023-03-31T07:15:04.306Z,997.49
2023-03-31T07:16:04.538Z,997.46
2023-03-31T07:17:04.302Z,997.50
2023-03-31T07:18:04.388Z,997.56
2023-03-31T07:19:04.313Z,997.55
2023-03-31T07:20:04.308Z,997.52
2023-03-31T07:21:07.275Z,997.56
2023-03-31T07:22:04.303Z,997.52
2023-03-31T07:23:04.310Z,997.51
2023-03-31T07:24:04.305Z,997.49
2023-03-31T07:25:04.299Z,997.43
2023-03-31T07:26:04.353Z,997.40
2023-03-31T07:27:04.308Z,997.40
2023-03-31T07:28:04.301Z,997.41
2023-03-31T07:29:04.346Z,997.38
2023-03-31T07:30:04.326Z,997.36
2023-03-31T07:31:04.546Z,997.33
2023-03-31T07:32:04.364Z,997.36
2023-03-31T07:33:04.343Z,997.34
2023-03-31T07:34:04.308Z,997.33
2023-03-31T07:35:04.298Z,997.25
2023-03-31T07:36:11.865Z,997.26
2023-03-31T07:37:04.305Z,997.33
2023-03-31T07:38:04.309Z,997.33
2023-03-31T07:39:04.305Z,997.44
2023-03-31T07:40:04.316Z,997.41
2023-03-31T07:41:09.187Z,997.41
2023-03-31T07:42:04.308Z,997.44
2023-03-31T07:43:04.302Z,997.47
2023-03-31T07:44:04.304Z,997.50
2023-03-31T07:45:04.305Z,997.56
2023-03-31T07:46:04.504Z,997.58
2023-03-31T07:47:04.305Z,997.78
2023-03-31T07:48:04.363Z,997.81
2023-03-31T07:49:04.307Z,998.03
2023-03-31T07:50:04.341Z,998.20
2023-03-31T07:51:04.542Z,998.23
2023-03-31T07:52:04.309Z,998.33
2023-03-31T07:53:04.310Z,998.45
2023-03-31T07:54:04.311Z,998.22
2023-03-31T07:55:04.309Z,998.59
2023-03-31T07:56:04.561Z,998.23
2023-03-31T07:57:04.383Z,998.59
2023-03-31T07:58:04.320Z,998.69
2023-03-31T07:59:04.310Z,999.17
2023-03-31T08:00:04.319Z,999.74
2023-03-31T08:01:04.539Z,1000.32
2023-03-31T08:02:04.329Z,999.09
2023-03-31T08:03:04.328Z,999.05
2023-03-31T08:04:04.834Z,1000.34
2023-03-31T08:05:04.320Z,1001.35
2023-03-31T08:06:04.314Z,998.89
2023-03-31T08:07:04.321Z,999.45
2023-03-31T08:08:04.317Z,999.59
2023-03-31T08:09:04.320Z,999.37
2023-03-31T08:10:04.329Z,997.94
2023-03-31T08:11:04.540Z,997.46
2023-03-31T08:12:04.323Z,998.04
2023-03-31T08:13:04.317Z,997.26
2023-03-31T08:14:04.334Z,998.02
2023-03-31T08:15:04.338Z,998.09
2023-03-31T08:16:04.632Z,998.83
2023-03-31T08:17:04.327Z,999.05
2023-03-31T08:18:04.396Z,997.80
2023-03-31T08:19:04.340Z,997.10
2023-03-31T08:20:07.770Z,996.99
2023-03-31T08:21:04.692Z,996.98
2023-03-31T08:22:04.333Z,997.05
2023-03-31T08:23:04.342Z,997.14
2023-03-31T08:24:04.345Z,997.11
2023-03-31T08:25:04.334Z,997.16
2023-03-31T08:26:04.601Z,997.30
2023-03-31T08:27:04.481Z,996.86
2023-03-31T08:28:04.342Z,997.15
2023-03-31T08:29:04.343Z,997.10
2023-03-31T08:30:04.354Z,997.65
2023-03-31T08:31:04.346Z,997.24
2023-03-31T08:32:04.398Z,997.28
2023-03-31T08:33:04.418Z,997.09
2023-03-31T08:34:04.348Z,997.00
2023-03-31T08:35:04.351Z,996.84
2023-03-31T08:36:04.701Z,996.78
2023-03-31T08:37:05.872Z,997.68
2023-03-31T08:38:04.358Z,997.21
2023-03-31T08:39:04.355Z,996.63
2023-03-31T08:40:04.362Z,996.57
2023-03-31T08:41:04.352Z,996.73
2023-03-31T08:42:04.351Z,996.64
2023-03-31T08:43:04.362Z,996.59
2023-03-31T08:46:35.303Z,997.06
2023-03-31T08:47:35.282Z,996.93
2023-03-31T08:50:18.522Z,996.42
2023-03-31T08:51:18.556Z,996.39
2023-03-31T08:52:18.532Z,996.31
2023-03-31T08:53:18.526Z,996.27
2023-03-31T08:54:18.539Z,996.21
2023-03-31T08:55:18.531Z,996.26
2023-03-31T08:56:18.544Z,996.38
2023-03-31T08:57:18.557Z,996.45
2023-03-31T08:58:18.535Z,996.54
2023-03-31T08:59:18.552Z,996.44
2023-03-31T09:00:18.550Z,996.35
2023-03-31T09:01:18.599Z,996.31
2023-03-31T09:02:18.821Z,996.23
2023-03-31T09:03:18.613Z,996.09
2023-03-31T09:04:18.668Z,996.02
2023-03-31T09:05:18.551Z,996.07
2023-03-31T09:06:18.557Z,996.20
2023-03-31T09:07:18.569Z,996.32
2023-03-31T09:08:18.546Z,996.34
2023-03-31T09:09:18.539Z,996.20
2023-03-31T09:10:18.559Z,996.14
2023-03-31T09:11:18.539Z,996.06
2023-03-31T09:12:18.548Z,996.08
2023-03-31T09:13:18.542Z,996.09
2023-03-31T09:14:18.560Z,996.08
2023-03-31T09:15:18.543Z,996.08
2023-03-31T09:16:18.565Z,996.04
2023-03-31T09:17:18.547Z,995.99
2023-03-31T09:18:18.547Z,996.03
2023-03-31T09:19:18.544Z,996.02
2023-03-31T09:20:18.572Z,995.93
2023-03-31T09:21:18.547Z,995.95
2023-03-31T09:22:18.551Z,995.90
2023-03-31T09:23:18.581Z,995.87
2023-03-31T09:24:18.614Z,995.86
2023-03-31T09:25:18.558Z,995.79
2023-03-31T09:26:18.560Z,995.83
2023-03-31T09:27:18.552Z,995.78
2023-03-31T09:28:18.552Z,995.82
2023-03-31T09:29:18.585Z,995.91
2023-03-31T09:30:18.558Z,996.30
2023-03-31T09:31:18.583Z,996.39
2023-03-31T09:32:18.556Z,996.32
2023-03-31T09:33:18.559Z,996.28
2023-03-31T09:34:18.567Z,996.28
2023-03-31T09:35:18.571Z,996.25
2023-03-31T09:36:18.624Z,996.38
2023-03-31T09:37:18.552Z,996.38
2023-03-31T09:38:18.578Z,996.32
2023-03-31T09:39:18.587Z,996.20
2023-03-31T09:40:18.577Z,996.15
2023-03-31T09:41:18.556Z,996.13
2023-03-31T09:42:18.572Z,996.09
2023-03-31T09:43:18.569Z,995.98
2023-03-31T09:44:18.563Z,995.73
2023-03-31T09:45:18.580Z,995.71
2023-03-31T09:46:18.797Z,995.46
2023-03-31T09:47:18.564Z,995.38
2023-03-31T09:48:18.570Z,995.39
2023-03-31T09:49:18.565Z,995.29
2023-03-31T09:50:18.582Z,995.30
2023-03-31T09:51:18.582Z,995.31
2023-03-31T09:52:18.577Z,995.26
2023-03-31T09:53:18.571Z,995.37
2023-03-31T09:54:18.575Z,995.33
2023-03-31T09:55:28.409Z,995.28
2023-03-31T09:56:18.575Z,995.21
2023-03-31T09:57:18.643Z,995.30
2023-03-31T09:58:18.577Z,995.22
2023-03-31T09:59:18.606Z,995.17
2023-03-31T10:00:18.590Z,995.17
2023-03-31T10:01:18.614Z,995.13
2023-03-31T10:02:18.586Z,995.09
2023-03-31T10:03:18.579Z,995.10
2023-03-31T10:04:18.676Z,995.08
2023-03-31T10:05:18.580Z,995.09
2023-03-31T10:06:18.596Z,995.05
2023-03-31T10:07:18.585Z,995.15
2023-03-31T10:08:18.585Z,995.05
2023-03-31T10:09:18.595Z,995.02
2023-03-31T10:10:18.622Z,995.00
2023-03-31T10:11:18.612Z,995.06
2023-03-31T10:12:18.589Z,995.05
2023-03-31T10:13:18.586Z,995.04
2023-03-31T10:14:18.588Z,995.11
2023-03-31T10:15:18.585Z,995.09
2023-03-31T10:16:18.614Z,995.16
2023-03-31T10:17:18.582Z,995.04
2023-03-31T10:18:18.674Z,995.05
2023-03-31T10:19:18.591Z,995.02
2023-03-31T10:20:18.600Z,995.00
2023-03-31T10:21:18.586Z,995.04
2023-03-31T10:22:18.600Z,995.01
2023-03-31T10:23:18.588Z,994.93
2023-03-31T10:24:18.696Z,994.90
2023-03-31T10:25:18.591Z,994.73
2023-03-31T10:26:18.595Z,994.78
2023-03-31T10:27:19.962Z,994.80
2023-03-31T10:28:18.591Z,994.75
2023-03-31T10:29:18.601Z,994.75
2023-03-31T10:30:18.637Z,994.73
2023-03-31T10:31:18.618Z,994.70
2023-03-31T10:32:18.618Z,994.69
2023-03-31T10:33:22.609Z,994.68
2023-03-31T10:34:18.594Z,994.66
2023-03-31T10:35:18.599Z,994.76
2023-03-31T10:36:18.613Z,994.76
2023-03-31T10:37:18.586Z,994.78
2023-03-31T10:38:18.612Z,994.78
2023-03-31T10:39:18.590Z,994.66
2023-03-31T10:40:18.595Z,994.66
2023-03-31T10:41:18.645Z,994.59
2023-03-31T10:42:18.595Z,994.63
2023-03-31T10:43:18.613Z,994.56
2023-03-31T10:44:18.594Z,994.56
2023-03-31T10:45:29.744Z,994.69
2023-03-31T10:46:18.613Z,994.70
2023-03-31T10:47:18.599Z,994.65
2023-03-31T10:48:18.605Z,994.56
2023-03-31T10:49:18.592Z,994.61
2023-03-31T10:50:18.594Z,994.66
2023-03-31T10:51:18.590Z,994.64
2023-03-31T10:52:18.593Z,994.60
2023-03-31T10:53:18.589Z,994.58
2023-03-31T10:54:18.593Z,994.51
2023-03-31T10:55:19.065Z,994.45
2023-03-31T10:56:18.591Z,994.40
2023-03-31T10:57:18.669Z,994.49
2023-03-31T10:58:18.679Z,994.48
2023-03-31T10:59:18.613Z,994.46
2023-03-31T11:00:18.601Z,994.42
2023-03-31T11:01:18.643Z,994.38
2023-03-31T11:02:18.603Z,994.34
2023-03-31T11:03:18.743Z,994.34
2023-03-31T11:04:18.594Z,994.37
2023-03-31T11:05:18.619Z,994.38
2023-03-31T11:06:18.601Z,994.38
2023-03-31T11:07:18.599Z,994.34
2023-03-31T11:08:19.787Z,994.34
2023-03-31T11:09:18.634Z,994.31
2023-03-31T11:10:18.619Z,994.32
2023-03-31T11:11:18.592Z,994.32
2023-03-31T11:12:18.597Z,994.25
2023-03-31T11:13:18.594Z,994.31
2023-03-31T11:14:18.603Z,994.28
2023-03-31T11:15:18.631Z,994.27
2023-03-31T11:16:18.749Z,994.36
2023-03-31T11:17:18.670Z,994.34
2023-03-31T11:18:18.617Z,994.32
2023-03-31T11:19:18.605Z,994.32
2023-03-31T11:20:18.592Z,994.37
2023-03-31T11:21:18.589Z,994.40
2023-03-31T11:22:18.598Z,994.40
2023-03-31T11:23:18.603Z,994.39
2023-03-31T11:24:18.594Z,994.38
2023-03-31T11:25:18.601Z,994.43
2023-03-31T11:26:18.604Z,994.33
2023-03-31T11:27:18.588Z,994.31
2023-03-31T11:29:18.602Z,994.22
2023-03-31T11:30:18.602Z,994.10
2023-03-31T11:31:18.692Z,994.09
2023-03-31T11:32:18.594Z,994.12
2023-03-31T11:33:18.626Z,994.05
2023-03-31T11:34:18.595Z,994.06
2023-03-31T11:35:18.596Z,994.16
2023-03-31T11:36:18.617Z,994.05
2023-03-31T11:37:18.596Z,993.91
2023-03-31T11:38:18.606Z,993.86
2023-03-31T11:39:18.589Z,993.83
2023-03-31T11:40:18.604Z,993.82
2023-03-31T11:41:18.594Z,993.76
2023-03-31T11:42:18.594Z,993.82
2023-03-31T11:43:18.593Z,993.81
2023-03-31T11:44:18.597Z,993.73
2023-03-31T11:45:18.610Z,993.71
2023-03-31T11:46:18.739Z,993.71
2023-03-31T11:47:18.621Z,993.67
2023-03-31T11:48:18.618Z,993.63
2023-03-31T11:49:18.593Z,993.63
2023-03-31T11:50:18.594Z,993.51
2023-03-31T11:51:18.591Z,993.54
2023-03-31T11:52:18.593Z,993.62
2023-03-31T11:53:18.594Z,993.58
2023-03-31T11:54:18.597Z,993.57
2023-03-31T11:55:18.601Z,993.60
2023-03-31T11:56:18.597Z,993.58
2023-03-31T11:57:18.646Z,993.56
2023-03-31T11:58:18.602Z,993.52
2023-03-31T11:59:18.588Z,993.49
2023-03-31T12:00:18.593Z,993.48
2023-03-31T12:01:18.587Z,993.52
2023-03-31T12:02:18.589Z,993.49
2023-03-31T12:03:18.712Z,993.42
2023-03-31T12:04:18.690Z,993.42
2023-03-31T12:05:18.592Z,993.41
2023-03-31T12:06:18.667Z,993.39
2023-03-31T12:07:18.587Z,993.36
2023-03-31T12:08:18.597Z,993.33
2023-03-31T12:09:18.605Z,993.32
2023-03-31T12:10:18.593Z,993.32
2023-03-31T12:11:18.588Z,993.34
2023-03-31T12:12:18.590Z,993.32
2023-03-31T12:13:18.588Z,993.31
2023-03-31T12:14:18.595Z,993.27
2023-03-31T12:15:18.605Z,993.28
2023-03-31T12:16:18.648Z,993.24
2023-03-31T12:17:18.596Z,993.18
2023-03-31T12:18:18.597Z,993.15
2023-03-31T12:19:18.614Z,993.10
2023-03-31T12:20:18.610Z,993.05
2023-03-31T12:21:18.595Z,993.06
2023-03-31T12:22:18.590Z,993.09
2023-03-31T12:23:18.587Z,993.02
2023-03-31T12:24:18.590Z,993.02
2023-03-31T12:25:18.589Z,993.00
2023-03-31T12:26:18.590Z,992.96
2023-03-31T12:27:18.592Z,992.98
2023-03-31T12:28:18.588Z,992.98
2023-03-31T12:29:18.619Z,993.00
2023-03-31T12:30:18.589Z,993.00
2023-03-31T12:31:18.616Z,992.98